sensor_id;sensor_type;location;lat;lon;timestamp;temperature;humidity
8002;DHT22;4046;48.774;8.732;2024-01-16T00:02:10;22.50;59.80
8002;DHT22;4046;48.774;8.732;2024-01-16T00:04:38;22.40;59.70
8002;DHT22;4046;48.774;8.732;2024-01-16T00:07:06;22.50;59.80
8002;DHT22;4046;48.774;8.732;2024-01-16T00:09:35;22.40;59.70
8002;DHT22;4046;48.774;8.732;2024-01-16T00:12:02;22.40;59.70
8002;DHT22;4046;48.774;8.732;2024-01-16T00:14:29;22.50;59.80
8002;DHT22;4046;48.774;8.732;2024-01-16T00:16:55;22.40;59.70
8002;DHT22;4046;48.774;8.732;2024-01-16T00:19:43;22.40;59.70
8002;DHT22;4046;48.774;8.732;2024-01-16T00:22:48;22.40;59.70
8002;DHT22;4046;48.774;8.732;2024-01-16T00:25:13;22.70;60.70
8002;DHT22;4046;48.774;8.732;2024-01-16T00:27:50;22.40;59.70
8002;DHT22;4046;48.774;8.732;2024-01-16T00:31:20;22.40;59.70
8002;DHT22;4046;48.774;8.732;2024-01-16T00:34:12;22.40;59.70
8002;DHT22;4046;48.774;8.732;2024-01-16T00:36:47;22.40;59.80
8002;DHT22;4046;48.774;8.732;2024-01-16T00:39:13;22.40;59.80
8002;DHT22;4046;48.774;8.732;2024-01-16T00:41:39;22.40;59.80
8002;DHT22;4046;48.774;8.732;2024-01-16T00:44:05;22.40;59.80
8002;DHT22;4046;48.774;8.732;2024-01-16T00:47:03;22.40;59.80
8002;DHT22;4046;48.774;8.732;2024-01-16T00:49:51;22.40;59.70
8002;DHT22;4046;48.774;8.732;2024-01-16T00:52:16;22.40;59.70
8002;DHT22;4046;48.774;8.732;2024-01-16T00:54:43;22.40;59.80
8002;DHT22;4046;48.774;8.732;2024-01-16T00:57:37;22.40;59.70
8002;DHT22;4046;48.774;8.732;2024-01-16T01:00:32;22.40;59.70
8002;DHT22;4046;48.774;8.732;2024-01-16T01:02:59;22.40;59.70
8002;DHT22;4046;48.774;8.732;2024-01-16T01:05:25;22.40;59.70
8002;DHT22;4046;48.774;8.732;2024-01-16T01:07:57;22.40;59.80
8002;DHT22;4046;48.774;8.732;2024-01-16T01:10:23;22.40;59.70
8002;DHT22;4046;48.774;8.732;2024-01-16T01:12:49;22.40;59.70
8002;DHT22;4046;48.774;8.732;2024-01-16T01:15:15;22.40;59.70
8002;DHT22;4046;48.774;8.732;2024-01-16T01:17:41;22.40;59.70
8002;DHT22;4046;48.774;8.732;2024-01-16T01:20:40;22.40;59.70
8002;DHT22;4046;48.774;8.732;2024-01-16T01:23:07;22.40;59.70
8002;DHT22;4046;48.774;8.732;2024-01-16T01:25:33;22.50;59.80
8002;DHT22;4046;48.774;8.732;2024-01-16T01:30:59;22.40;59.70
8002;DHT22;4046;48.774;8.732;2024-01-16T01:33:24;22.40;59.80
8002;DHT22;4046;48.774;8.732;2024-01-16T01:35:50;22.40;59.70
8002;DHT22;4046;48.774;8.732;2024-01-16T01:38:16;22.40;59.70
8002;DHT22;4046;48.774;8.732;2024-01-16T01:41:04;22.40;59.70
8002;DHT22;4046;48.774;8.732;2024-01-16T01:43:52;22.40;59.70
8002;DHT22;4046;48.774;8.732;2024-01-16T01:50:06;22.40;59.70
8002;DHT22;4046;48.774;8.732;2024-01-16T01:55:55;22.40;59.80
8002;DHT22;4046;48.774;8.732;2024-01-16T01:58:21;22.40;59.80
8002;DHT22;4046;48.774;8.732;2024-01-16T02:00:47;22.40;59.80
8002;DHT22;4046;48.774;8.732;2024-01-16T02:03:13;22.40;59.80
8002;DHT22;4046;48.774;8.732;2024-01-16T02:05:39;22.40;59.80
8002;DHT22;4046;48.774;8.732;2024-01-16T02:08:05;22.40;59.80
8002;DHT22;4046;48.774;8.732;2024-01-16T02:10:31;22.40;59.80
8002;DHT22;4046;48.774;8.732;2024-01-16T02:12:58;22.40;59.80
8002;DHT22;4046;48.774;8.732;2024-01-16T02:15:50;22.40;59.80
8002;DHT22;4046;48.774;8.732;2024-01-16T02:18:17;22.40;59.80
8002;DHT22;4046;48.774;8.732;2024-01-16T02:20:44;22.40;59.80
8002;DHT22;4046;48.774;8.732;2024-01-16T02:23:10;22.40;59.80
8002;DHT22;4046;48.774;8.732;2024-01-16T02:26:04;22.40;59.80
8002;DHT22;4046;48.774;8.732;2024-01-16T02:28:29;22.40;59.80
8002;DHT22;4046;48.774;8.732;2024-01-16T02:30:55;22.40;59.80
8002;DHT22;4046;48.774;8.732;2024-01-16T02:33:23;22.40;59.80
8002;DHT22;4046;48.774;8.732;2024-01-16T02:35:49;22.40;59.80
8002;DHT22;4046;48.774;8.732;2024-01-16T02:38:14;22.40;60.60
8002;DHT22;4046;48.774;8.732;2024-01-16T02:40:40;22.40;59.80
8002;DHT22;4046;48.774;8.732;2024-01-16T02:43:06;22.30;59.80
8002;DHT22;4046;48.774;8.732;2024-01-16T02:45:33;22.40;59.90
8002;DHT22;4046;48.774;8.732;2024-01-16T02:51:14;22.30;59.80
8002;DHT22;4046;48.774;8.732;2024-01-16T02:53:41;22.30;59.80
8002;DHT22;4046;48.774;8.732;2024-01-16T02:56:08;22.30;59.80
8002;DHT22;4046;48.774;8.732;2024-01-16T02:58:34;22.30;59.80
8002;DHT22;4046;48.774;8.732;2024-01-16T03:01:19;22.30;59.80
8002;DHT22;4046;48.774;8.732;2024-01-16T03:04:29;22.30;59.90
8002;DHT22;4046;48.774;8.732;2024-01-16T03:08:04;22.30;59.90
8002;DHT22;4046;48.774;8.732;2024-01-16T03:10:37;22.30;59.90
8002;DHT22;4046;48.774;8.732;2024-01-16T03:14:26;22.30;60.00
8002;DHT22;4046;48.774;8.732;2024-01-16T03:16:36;22.60;60.20
8002;DHT22;4046;48.774;8.732;2024-01-16T03:19:02;22.30;59.90
8002;DHT22;4046;48.774;8.732;2024-01-16T03:21:28;22.30;60.00
8002;DHT22;4046;48.774;8.732;2024-01-16T03:27:28;22.30;59.90
8002;DHT22;4046;48.774;8.732;2024-01-16T03:29:54;22.30;60.00
8002;DHT22;4046;48.774;8.732;2024-01-16T03:32:21;22.30;60.00
8002;DHT22;4046;48.774;8.732;2024-01-16T03:35:41;22.30;60.00
8002;DHT22;4046;48.774;8.732;2024-01-16T03:38:37;22.30;59.90
8002;DHT22;4046;48.774;8.732;2024-01-16T03:41:03;22.30;60.00
8002;DHT22;4046;48.774;8.732;2024-01-16T03:43:30;22.30;60.00
8002;DHT22;4046;48.774;8.732;2024-01-16T03:45:58;22.30;60.00
8002;DHT22;4046;48.774;8.732;2024-01-16T03:51:51;22.30;60.00
8002;DHT22;4046;48.774;8.732;2024-01-16T03:54:17;22.30;59.90
8002;DHT22;4046;48.774;8.732;2024-01-16T03:56:42;22.30;59.90
8002;DHT22;4046;48.774;8.732;2024-01-16T03:59:08;22.30;59.90
8002;DHT22;4046;48.774;8.732;2024-01-16T04:01:34;22.30;59.90
8002;DHT22;4046;48.774;8.732;2024-01-16T04:04:02;22.30;59.90
8002;DHT22;4046;48.774;8.732;2024-01-16T04:10:30;22.40;59.90
8002;DHT22;4046;48.774;8.732;2024-01-16T04:13:28;22.30;59.80
8002;DHT22;4046;48.774;8.732;2024-01-16T04:20:06;22.30;59.80
8002;DHT22;4046;48.774;8.732;2024-01-16T04:23:11;22.30;59.90
8002;DHT22;4046;48.774;8.732;2024-01-16T04:25:37;22.30;59.80
8002;DHT22;4046;48.774;8.732;2024-01-16T04:28:29;22.30;60.60
8002;DHT22;4046;48.774;8.732;2024-01-16T04:30:55;22.30;59.90
8002;DHT22;4046;48.774;8.732;2024-01-16T04:33:21;22.30;59.80
8002;DHT22;4046;48.774;8.732;2024-01-16T04:36:22;22.40;59.90
8002;DHT22;4046;48.774;8.732;2024-01-16T04:38:48;22.40;59.90
8002;DHT22;4046;48.774;8.732;2024-01-16T04:41:13;22.40;59.90
8002;DHT22;4046;48.774;8.732;2024-01-16T04:50:46;22.40;59.90
8002;DHT22;4046;48.774;8.732;2024-01-16T04:53:15;22.40;60.60
8002;DHT22;4046;48.774;8.732;2024-01-16T04:59:54;22.40;59.80
8002;DHT22;4046;48.774;8.732;2024-01-16T05:06:15;22.40;59.90
8002;DHT22;4046;48.774;8.732;2024-01-16T05:08:41;22.40;59.90
8002;DHT22;4046;48.774;8.732;2024-01-16T05:11:22;22.40;59.90
8002;DHT22;4046;48.774;8.732;2024-01-16T05:13:48;22.40;59.90
8002;DHT22;4046;48.774;8.732;2024-01-16T05:16:14;22.40;59.90
8002;DHT22;4046;48.774;8.732;2024-01-16T05:18:58;22.40;59.90
8002;DHT22;4046;48.774;8.732;2024-01-16T05:21:24;22.40;59.90
8002;DHT22;4046;48.774;8.732;2024-01-16T05:23:50;22.40;59.90
8002;DHT22;4046;48.774;8.732;2024-01-16T05:29:49;22.40;59.90
8002;DHT22;4046;48.774;8.732;2024-01-16T05:32:14;22.40;59.80
8002;DHT22;4046;48.774;8.732;2024-01-16T05:35:02;22.40;59.90
8002;DHT22;4046;48.774;8.732;2024-01-16T05:41:33;22.40;59.80
8002;DHT22;4046;48.774;8.732;2024-01-16T05:43:59;22.40;59.90
8002;DHT22;4046;48.774;8.732;2024-01-16T05:46:35;22.40;59.80
8002;DHT22;4046;48.774;8.732;2024-01-16T05:49:01;22.40;59.80
8002;DHT22;4046;48.774;8.732;2024-01-16T05:51:27;22.40;59.80
8002;DHT22;4046;48.774;8.732;2024-01-16T05:53:54;22.40;59.80
8002;DHT22;4046;48.774;8.732;2024-01-16T05:57:16;22.40;59.80
8002;DHT22;4046;48.774;8.732;2024-01-16T06:00:24;22.40;59.80
8002;DHT22;4046;48.774;8.732;2024-01-16T06:03:02;22.40;59.80
8002;DHT22;4046;48.774;8.732;2024-01-16T06:05:28;22.40;59.80
8002;DHT22;4046;48.774;8.732;2024-01-16T06:07:54;22.40;59.80
8002;DHT22;4046;48.774;8.732;2024-01-16T06:10:37;22.40;59.80
8002;DHT22;4046;48.774;8.732;2024-01-16T06:13:22;22.40;59.90
8002;DHT22;4046;48.774;8.732;2024-01-16T06:16:07;22.40;59.80
8002;DHT22;4046;48.774;8.732;2024-01-16T06:18:52;22.40;59.80
8002;DHT22;4046;48.774;8.732;2024-01-16T06:24:50;22.40;59.80
8002;DHT22;4046;48.774;8.732;2024-01-16T06:27:15;22.40;59.80
8002;DHT22;4046;48.774;8.732;2024-01-16T06:29:45;22.40;59.80
8002;DHT22;4046;48.774;8.732;2024-01-16T06:32:11;22.40;59.80
8002;DHT22;4046;48.774;8.732;2024-01-16T06:41:02;22.40;59.70
8002;DHT22;4046;48.774;8.732;2024-01-16T06:46:53;22.40;59.70
8002;DHT22;4046;48.774;8.732;2024-01-16T06:49:37;22.40;59.70
8002;DHT22;4046;48.774;8.732;2024-01-16T06:56:22;22.40;59.70
8002;DHT22;4046;48.774;8.732;2024-01-16T07:02:49;22.40;59.80
8002;DHT22;4046;48.774;8.732;2024-01-16T07:05:17;22.40;59.70
8002;DHT22;4046;48.774;8.732;2024-01-16T07:07:42;22.30;60.40
8002;DHT22;4046;48.774;8.732;2024-01-16T07:10:08;22.40;59.70
8002;DHT22;4046;48.774;8.732;2024-01-16T07:12:39;22.40;59.70
8002;DHT22;4046;48.774;8.732;2024-01-16T07:15:54;22.40;60.40
8002;DHT22;4046;48.774;8.732;2024-01-16T07:21:50;22.40;59.70
8002;DHT22;4046;48.774;8.732;2024-01-16T07:24:15;22.40;59.70
8002;DHT22;4046;48.774;8.732;2024-01-16T07:26:41;22.40;59.70
8002;DHT22;4046;48.774;8.732;2024-01-16T07:29:38;22.40;59.70
8002;DHT22;4046;48.774;8.732;2024-01-16T07:32:19;22.40;59.60
8002;DHT22;4046;48.774;8.732;2024-01-16T07:34:45;22.40;59.60
8002;DHT22;4046;48.774;8.732;2024-01-16T07:37:11;22.40;59.60
8002;DHT22;4046;48.774;8.732;2024-01-16T07:39:37;22.40;59.60
8002;DHT22;4046;48.774;8.732;2024-01-16T07:42:03;22.40;59.60
8002;DHT22;4046;48.774;8.732;2024-01-16T07:44:29;22.40;59.60
8002;DHT22;4046;48.774;8.732;2024-01-16T07:50:17;22.40;59.60
8002;DHT22;4046;48.774;8.732;2024-01-16T07:56:41;22.40;59.60
8002;DHT22;4046;48.774;8.732;2024-01-16T07:59:50;22.40;59.60
8002;DHT22;4046;48.774;8.732;2024-01-16T08:02:16;22.40;60.30
8002;DHT22;4046;48.774;8.732;2024-01-16T08:04:42;22.40;59.60
8002;DHT22;4046;48.774;8.732;2024-01-16T08:10:19;22.40;59.50
8002;DHT22;4046;48.774;8.732;2024-01-16T08:12:45;22.50;59.50
8002;DHT22;4046;48.774;8.732;2024-01-16T08:15:11;22.50;59.50
8002;DHT22;4046;48.774;8.732;2024-01-16T08:17:37;22.40;59.50
8002;DHT22;4046;48.774;8.732;2024-01-16T08:20:03;22.50;59.50
8002;DHT22;4046;48.774;8.732;2024-01-16T08:22:29;22.50;59.50
8002;DHT22;4046;48.774;8.732;2024-01-16T08:28:42;22.50;59.50
8002;DHT22;4046;48.774;8.732;2024-01-16T08:31:07;22.50;59.50
8002;DHT22;4046;48.774;8.732;2024-01-16T08:33:33;22.50;59.50
8002;DHT22;4046;48.774;8.732;2024-01-16T08:35:59;22.40;59.40
8002;DHT22;4046;48.774;8.732;2024-01-16T08:38:25;22.50;59.50
8002;DHT22;4046;48.774;8.732;2024-01-16T08:40:51;22.50;59.50
8002;DHT22;4046;48.774;8.732;2024-01-16T08:43:17;22.50;59.40
8002;DHT22;4046;48.774;8.732;2024-01-16T08:45:42;22.50;59.40
8002;DHT22;4046;48.774;8.732;2024-01-16T08:48:08;22.60;59.40
8002;DHT22;4046;48.774;8.732;2024-01-16T08:50:34;22.60;59.40
8002;DHT22;4046;48.774;8.732;2024-01-16T08:53:00;22.60;59.40
8002;DHT22;4046;48.774;8.732;2024-01-16T08:55:26;22.60;59.40
8002;DHT22;4046;48.774;8.732;2024-01-16T08:57:52;22.60;59.30
8002;DHT22;4046;48.774;8.732;2024-01-16T09:03:46;22.60;59.30
8002;DHT22;4046;48.774;8.732;2024-01-16T09:06:12;22.60;59.30
8002;DHT22;4046;48.774;8.732;2024-01-16T09:08:38;22.60;59.30
8002;DHT22;4046;48.774;8.732;2024-01-16T09:14:55;22.60;59.10
8002;DHT22;4046;48.774;8.732;2024-01-16T09:17:20;22.60;59.10
8002;DHT22;4046;48.774;8.732;2024-01-16T09:19:46;22.60;59.10
8002;DHT22;4046;48.774;8.732;2024-01-16T09:22:12;22.60;59.10
8002;DHT22;4046;48.774;8.732;2024-01-16T09:24:38;22.50;59.20
8002;DHT22;4046;48.774;8.732;2024-01-16T09:31:10;22.40;59.20
8002;DHT22;4046;48.774;8.732;2024-01-16T09:33:36;22.40;59.20
8002;DHT22;4046;48.774;8.732;2024-01-16T09:36:02;22.30;59.20
8002;DHT22;4046;48.774;8.732;2024-01-16T09:38:28;22.30;59.20
8002;DHT22;4046;48.774;8.732;2024-01-16T09:40:54;22.30;59.10
8002;DHT22;4046;48.774;8.732;2024-01-16T09:43:28;22.40;59.20
8002;DHT22;4046;48.774;8.732;2024-01-16T09:49:38;22.40;59.10
8002;DHT22;4046;48.774;8.732;2024-01-16T09:52:17;22.40;59.10
8002;DHT22;4046;48.774;8.732;2024-01-16T09:54:49;22.40;59.00
8002;DHT22;4046;48.774;8.732;2024-01-16T09:57:31;22.40;58.90
8002;DHT22;4046;48.774;8.732;2024-01-16T09:59:59;22.60;58.90
8002;DHT22;4046;48.774;8.732;2024-01-16T10:02:26;22.60;58.70
8002;DHT22;4046;48.774;8.732;2024-01-16T10:04:53;22.70;58.70
8002;DHT22;4046;48.774;8.732;2024-01-16T10:07:20;22.80;58.50
8002;DHT22;4046;48.774;8.732;2024-01-16T10:09:56;22.90;58.40
8002;DHT22;4046;48.774;8.732;2024-01-16T10:12:26;23.10;58.30
8002;DHT22;4046;48.774;8.732;2024-01-16T10:14:53;23.20;58.20
8002;DHT22;4046;48.774;8.732;2024-01-16T10:17:41;23.30;58.00
8002;DHT22;4046;48.774;8.732;2024-01-16T10:20:09;23.40;57.80
8002;DHT22;4046;48.774;8.732;2024-01-16T10:26:17;23.80;57.40
8002;DHT22;4046;48.774;8.732;2024-01-16T10:29:11;23.80;57.40
8002;DHT22;4046;48.774;8.732;2024-01-16T10:32:29;23.80;57.30
8002;DHT22;4046;48.774;8.732;2024-01-16T10:37:33;23.90;57.10
8002;DHT22;4046;48.774;8.732;2024-01-16T10:40:26;24.00;56.90
8002;DHT22;4046;48.774;8.732;2024-01-16T10:43:44;24.20;56.60
8002;DHT22;4046;48.774;8.732;2024-01-16T10:46:17;24.40;56.50
8002;DHT22;4046;48.774;8.732;2024-01-16T10:48:59;24.60;56.20
8002;DHT22;4046;48.774;8.732;2024-01-16T10:51:54;24.70;56.10
8002;DHT22;4046;48.774;8.732;2024-01-16T10:54:21;24.60;56.20
8002;DHT22;4046;48.774;8.732;2024-01-16T11:00:09;24.00;56.50
8002;DHT22;4046;48.774;8.732;2024-01-16T11:02:43;23.80;56.70
8002;DHT22;4046;48.774;8.732;2024-01-16T11:05:12;23.70;56.80
8002;DHT22;4046;48.774;8.732;2024-01-16T11:07:38;23.60;56.90
8002;DHT22;4046;48.774;8.732;2024-01-16T11:10:07;23.50;56.90
8002;DHT22;4046;48.774;8.732;2024-01-16T11:12:34;23.40;57.00
8002;DHT22;4046;48.774;8.732;2024-01-16T11:18:23;23.20;57.10
8002;DHT22;4046;48.774;8.732;2024-01-16T11:20:51;23.40;56.90
8002;DHT22;4046;48.774;8.732;2024-01-16T11:23:17;23.70;56.70
8002;DHT22;4046;48.774;8.732;2024-01-16T11:33:05;24.10;56.30
8002;DHT22;4046;48.774;8.732;2024-01-16T11:39:17;24.40;56.10
8002;DHT22;4046;48.774;8.732;2024-01-16T11:41:56;24.60;55.90
8002;DHT22;4046;48.774;8.732;2024-01-16T11:48:22;24.80;55.80
8002;DHT22;4046;48.774;8.732;2024-01-16T11:54:24;24.80;55.70
8002;DHT22;4046;48.774;8.732;2024-01-16T12:00:57;25.00;55.60
8002;DHT22;4046;48.774;8.732;2024-01-16T12:03:44;24.90;55.60
8002;DHT22;4046;48.774;8.732;2024-01-16T12:10:21;24.10;56.50
8002;DHT22;4046;48.774;8.732;2024-01-16T12:12:48;23.90;56.70
8002;DHT22;4046;48.774;8.732;2024-01-16T12:15:18;23.80;56.80
8002;DHT22;4046;48.774;8.732;2024-01-16T12:21:44;23.70;56.90
8002;DHT22;4046;48.774;8.732;2024-01-16T12:24:11;23.50;57.00
8002;DHT22;4046;48.774;8.732;2024-01-16T12:26:37;23.70;56.70
8002;DHT22;4046;48.774;8.732;2024-01-16T12:29:03;23.80;56.70
8002;DHT22;4046;48.774;8.732;2024-01-16T12:31:29;23.70;56.80
8002;DHT22;4046;48.774;8.732;2024-01-16T12:34:07;23.70;56.90
8002;DHT22;4046;48.774;8.732;2024-01-16T12:36:34;23.70;56.70
8002;DHT22;4046;48.774;8.732;2024-01-16T12:42:33;23.60;56.90
8002;DHT22;4046;48.774;8.732;2024-01-16T12:44:59;23.50;57.10
8002;DHT22;4046;48.774;8.732;2024-01-16T12:47:25;23.30;57.20
8002;DHT22;4046;48.774;8.732;2024-01-16T12:49:51;23.30;57.30
8002;DHT22;4046;48.774;8.732;2024-01-16T12:52:49;23.10;57.40
8002;DHT22;4046;48.774;8.732;2024-01-16T12:55:16;22.90;57.60
8002;DHT22;4046;48.774;8.732;2024-01-16T12:57:44;22.80;57.80
8002;DHT22;4046;48.774;8.732;2024-01-16T13:00:23;22.70;57.90
8002;DHT22;4046;48.774;8.732;2024-01-16T13:02:51;22.60;58.00
8002;DHT22;4046;48.774;8.732;2024-01-16T13:05:18;22.50;58.10
8002;DHT22;4046;48.774;8.732;2024-01-16T13:07:44;22.40;58.10
8002;DHT22;4046;48.774;8.732;2024-01-16T13:10:12;22.40;58.20
8002;DHT22;4046;48.774;8.732;2024-01-16T13:12:41;22.40;58.20
8002;DHT22;4046;48.774;8.732;2024-01-16T13:15:07;22.30;58.30
8002;DHT22;4046;48.774;8.732;2024-01-16T13:17:34;22.30;58.30
8002;DHT22;4046;48.774;8.732;2024-01-16T13:20:01;22.30;58.40
8002;DHT22;4046;48.774;8.732;2024-01-16T13:22:26;22.20;58.40
8002;DHT22;4046;48.774;8.732;2024-01-16T13:24:52;22.20;58.50
8002;DHT22;4046;48.774;8.732;2024-01-16T13:27:18;22.20;58.50
8002;DHT22;4046;48.774;8.732;2024-01-16T13:32:58;22.10;58.60
8002;DHT22;4046;48.774;8.732;2024-01-16T13:35:24;22.10;58.60
8002;DHT22;4046;48.774;8.732;2024-01-16T13:38:11;22.00;58.60
8002;DHT22;4046;48.774;8.732;2024-01-16T13:40:37;22.00;58.70
8002;DHT22;4046;48.774;8.732;2024-01-16T13:47:08;22.00;58.70
8002;DHT22;4046;48.774;8.732;2024-01-16T13:52:47;21.90;58.80
8002;DHT22;4046;48.774;8.732;2024-01-16T13:55:12;21.90;58.80
8002;DHT22;4046;48.774;8.732;2024-01-16T13:57:39;21.80;58.80
8002;DHT22;4046;48.774;8.732;2024-01-16T14:00:07;21.80;58.90
8002;DHT22;4046;48.774;8.732;2024-01-16T14:06:21;21.80;58.90
8002;DHT22;4046;48.774;8.732;2024-01-16T14:08:47;22.00;59.10
8002;DHT22;4046;48.774;8.732;2024-01-16T14:11:13;21.80;59.00
8002;DHT22;4046;48.774;8.732;2024-01-16T14:14:19;21.70;58.90
8002;DHT22;4046;48.774;8.732;2024-01-16T14:16:48;21.70;58.90
8002;DHT22;4046;48.774;8.732;2024-01-16T14:20:17;21.70;59.00
8002;DHT22;4046;48.774;8.732;2024-01-16T14:22:44;21.70;59.00
8002;DHT22;4046;48.774;8.732;2024-01-16T14:25:13;21.60;59.00
8002;DHT22;4046;48.774;8.732;2024-01-16T14:27:45;21.60;59.00
8002;DHT22;4046;48.774;8.732;2024-01-16T14:30:13;21.60;59.00
8002;DHT22;4046;48.774;8.732;2024-01-16T14:32:44;21.60;59.00
8002;DHT22;4046;48.774;8.732;2024-01-16T14:35:12;21.60;59.00
8002;DHT22;4046;48.774;8.732;2024-01-16T14:37:39;21.60;59.00
8002;DHT22;4046;48.774;8.732;2024-01-16T14:40:25;21.60;59.00
8002;DHT22;4046;48.774;8.732;2024-01-16T14:42:55;21.60;59.00
8002;DHT22;4046;48.774;8.732;2024-01-16T14:45:23;21.60;59.10
8002;DHT22;4046;48.774;8.732;2024-01-16T14:47:50;21.60;59.10
8002;DHT22;4046;48.774;8.732;2024-01-16T14:57:48;21.50;59.10
8002;DHT22;4046;48.774;8.732;2024-01-16T15:00:25;21.50;59.10
8002;DHT22;4046;48.774;8.732;2024-01-16T15:02:53;21.50;59.20
8002;DHT22;4046;48.774;8.732;2024-01-16T15:05:19;21.50;59.10
8002;DHT22;4046;48.774;8.732;2024-01-16T15:07:46;21.50;59.20
8002;DHT22;4046;48.774;8.732;2024-01-16T15:10:12;21.50;59.20
8002;DHT22;4046;48.774;8.732;2024-01-16T15:12:39;21.80;59.40
8002;DHT22;4046;48.774;8.732;2024-01-16T15:15:06;21.50;59.20
8002;DHT22;4046;48.774;8.732;2024-01-16T15:17:33;21.50;59.20
8002;DHT22;4046;48.774;8.732;2024-01-16T15:19:59;21.50;59.20
8002;DHT22;4046;48.774;8.732;2024-01-16T15:22:24;21.50;59.30
8002;DHT22;4046;48.774;8.732;2024-01-16T15:24:50;21.40;59.10
8002;DHT22;4046;48.774;8.732;2024-01-16T15:27:16;21.50;59.20
8002;DHT22;4046;48.774;8.732;2024-01-16T15:29:42;21.40;59.10
8002;DHT22;4046;48.774;8.732;2024-01-16T15:32:08;21.40;59.10
8002;DHT22;4046;48.774;8.732;2024-01-16T15:34:35;21.40;59.20
8002;DHT22;4046;48.774;8.732;2024-01-16T15:37:01;21.40;59.20
8002;DHT22;4046;48.774;8.732;2024-01-16T15:40:19;21.40;59.20
8002;DHT22;4046;48.774;8.732;2024-01-16T15:43:07;21.40;59.20
8002;DHT22;4046;48.774;8.732;2024-01-16T15:45:33;21.40;59.20
8002;DHT22;4046;48.774;8.732;2024-01-16T15:48:00;21.40;59.20
8002;DHT22;4046;48.774;8.732;2024-01-16T15:50:26;21.40;59.30
8002;DHT22;4046;48.774;8.732;2024-01-16T15:53:02;21.40;59.20
8002;DHT22;4046;48.774;8.732;2024-01-16T15:55:52;21.40;59.30
8002;DHT22;4046;48.774;8.732;2024-01-16T15:58:18;21.30;59.20
8002;DHT22;4046;48.774;8.732;2024-01-16T16:00:44;21.40;59.30
8002;DHT22;4046;48.774;8.732;2024-01-16T16:03:09;21.40;59.30
8002;DHT22;4046;48.774;8.732;2024-01-16T16:05:36;21.30;59.30
8002;DHT22;4046;48.774;8.732;2024-01-16T16:08:44;21.30;59.20
8002;DHT22;4046;48.774;8.732;2024-01-16T16:11:03;21.40;59.30
8002;DHT22;4046;48.774;8.732;2024-01-16T16:13:29;21.30;59.30
8002;DHT22;4046;48.774;8.732;2024-01-16T16:15:56;21.30;59.30
8002;DHT22;4046;48.774;8.732;2024-01-16T16:18:22;21.30;59.30
8002;DHT22;4046;48.774;8.732;2024-01-16T16:20:48;21.30;59.30
8002;DHT22;4046;48.774;8.732;2024-01-16T16:23:14;21.30;59.30
8002;DHT22;4046;48.774;8.732;2024-01-16T16:25:46;21.30;59.30
8002;DHT22;4046;48.774;8.732;2024-01-16T16:28:15;21.30;59.30
8002;DHT22;4046;48.774;8.732;2024-01-16T16:30:41;21.30;59.30
8002;DHT22;4046;48.774;8.732;2024-01-16T16:33:34;21.30;59.30
8002;DHT22;4046;48.774;8.732;2024-01-16T16:39:51;21.30;59.30
8002;DHT22;4046;48.774;8.732;2024-01-16T16:42:46;21.30;59.30
8002;DHT22;4046;48.774;8.732;2024-01-16T16:45:12;21.30;59.30
8002;DHT22;4046;48.774;8.732;2024-01-16T16:47:38;21.30;59.30
8002;DHT22;4046;48.774;8.732;2024-01-16T16:52:52;21.30;59.30
8002;DHT22;4046;48.774;8.732;2024-01-16T16:55:20;21.30;59.40
8002;DHT22;4046;48.774;8.732;2024-01-16T16:57:46;21.30;59.40
8002;DHT22;4046;48.774;8.732;2024-01-16T17:00:12;21.30;59.40
8002;DHT22;4046;48.774;8.732;2024-01-16T17:02:45;21.10;59.20
8002;DHT22;4046;48.774;8.732;2024-01-16T17:05:11;21.20;59.20
8002;DHT22;4046;48.774;8.732;2024-01-16T17:07:40;21.30;59.40
8002;DHT22;4046;48.774;8.732;2024-01-16T17:10:06;21.30;59.40
8002;DHT22;4046;48.774;8.732;2024-01-16T17:15:14;21.30;59.40
8002;DHT22;4046;48.774;8.732;2024-01-16T17:17:40;21.80;59.70
8002;DHT22;4046;48.774;8.732;2024-01-16T17:20:07;21.40;59.30
8002;DHT22;4046;48.774;8.732;2024-01-16T17:22:39;21.50;59.30
8002;DHT22;4046;48.774;8.732;2024-01-16T17:25:05;21.50;59.30
8002;DHT22;4046;48.774;8.732;2024-01-16T17:27:31;21.60;59.30
8002;DHT22;4046;48.774;8.732;2024-01-16T17:29:57;21.60;59.20
8002;DHT22;4046;48.774;8.732;2024-01-16T17:32:23;21.60;59.30
8002;DHT22;4046;48.774;8.732;2024-01-16T17:34:52;21.70;59.30
8002;DHT22;4046;48.774;8.732;2024-01-16T17:40:48;21.70;59.20
8002;DHT22;4046;48.774;8.732;2024-01-16T17:43:15;21.70;59.20
8002;DHT22;4046;48.774;8.732;2024-01-16T17:49:19;21.80;59.20
8002;DHT22;4046;48.774;8.732;2024-01-16T17:52:21;21.80;59.20
8002;DHT22;4046;48.774;8.732;2024-01-16T17:55:58;21.80;59.20
8002;DHT22;4046;48.774;8.732;2024-01-16T18:01:41;21.80;59.20
8002;DHT22;4046;48.774;8.732;2024-01-16T18:04:07;21.90;59.30
8002;DHT22;4046;48.774;8.732;2024-01-16T18:06:37;21.90;59.20
8002;DHT22;4046;48.774;8.732;2024-01-16T18:09:03;21.90;59.20
8002;DHT22;4046;48.774;8.732;2024-01-16T18:11:58;21.90;59.20
8002;DHT22;4046;48.774;8.732;2024-01-16T18:14:24;21.90;59.20
8002;DHT22;4046;48.774;8.732;2024-01-16T18:16:50;21.90;59.20
8002;DHT22;4046;48.774;8.732;2024-01-16T18:19:17;21.90;59.20
8002;DHT22;4046;48.774;8.732;2024-01-16T18:21:51;22.00;59.30
8002;DHT22;4046;48.774;8.732;2024-01-16T18:24:17;22.00;59.20
8002;DHT22;4046;48.774;8.732;2024-01-16T18:26:48;22.00;59.20
8002;DHT22;4046;48.774;8.732;2024-01-16T18:29:15;22.00;59.20
8002;DHT22;4046;48.774;8.732;2024-01-16T18:32:09;22.00;59.20
8002;DHT22;4046;48.774;8.732;2024-01-16T18:34:35;22.00;59.20
8002;DHT22;4046;48.774;8.732;2024-01-16T18:37:06;22.00;58.80
8002;DHT22;4046;48.774;8.732;2024-01-16T18:42:21;22.00;59.50
8002;DHT22;4046;48.774;8.732;2024-01-16T18:45:08;22.00;58.90
8002;DHT22;4046;48.774;8.732;2024-01-16T18:47:48;22.00;58.90
8002;DHT22;4046;48.774;8.732;2024-01-16T18:50:23;22.10;59.00
8002;DHT22;4046;48.774;8.732;2024-01-16T18:56:46;22.10;59.00
8002;DHT22;4046;48.774;8.732;2024-01-16T18:59:40;22.10;59.00
8002;DHT22;4046;48.774;8.732;2024-01-16T19:06:44;22.20;59.10
8002;DHT22;4046;48.774;8.732;2024-01-16T19:20:04;22.30;59.00
8002;DHT22;4046;48.774;8.732;2024-01-16T19:30:30;22.30;59.10
8002;DHT22;4046;48.774;8.732;2024-01-16T19:34:02;22.30;59.10
8002;DHT22;4046;48.774;8.732;2024-01-16T19:37:16;22.30;59.10
8002;DHT22;4046;48.774;8.732;2024-01-16T19:39:42;22.40;59.10
8002;DHT22;4046;48.774;8.732;2024-01-16T19:42:12;22.40;59.10
8002;DHT22;4046;48.774;8.732;2024-01-16T19:44:38;22.40;59.10
8002;DHT22;4046;48.774;8.732;2024-01-16T19:58:22;22.40;59.00
8002;DHT22;4046;48.774;8.732;2024-01-16T20:01:00;22.40;59.00
8002;DHT22;4046;48.774;8.732;2024-01-16T20:03:48;22.40;59.10
8002;DHT22;4046;48.774;8.732;2024-01-16T20:06:14;22.40;59.10
8002;DHT22;4046;48.774;8.732;2024-01-16T20:08:59;22.40;59.10
8002;DHT22;4046;48.774;8.732;2024-01-16T20:12:02;22.40;59.00
8002;DHT22;4046;48.774;8.732;2024-01-16T20:14:28;22.40;59.00
8002;DHT22;4046;48.774;8.732;2024-01-16T20:24:26;22.40;59.00
8002;DHT22;4046;48.774;8.732;2024-01-16T20:27:26;22.40;59.10
8002;DHT22;4046;48.774;8.732;2024-01-16T20:33:50;22.40;59.10
8002;DHT22;4046;48.774;8.732;2024-01-16T20:36:31;22.40;59.10
8002;DHT22;4046;48.774;8.732;2024-01-16T20:39:28;22.40;59.10
8002;DHT22;4046;48.774;8.732;2024-01-16T20:41:54;22.40;59.10
8002;DHT22;4046;48.774;8.732;2024-01-16T20:47:39;22.40;59.10
8002;DHT22;4046;48.774;8.732;2024-01-16T20:53:52;22.40;59.10